Terminal Aerodrome Forecast
Issued by NWS

Home | Current Version | Previous Version | Text Only | Print | Product List | Glossary On
Versions: 1 2 3 4 5 6 7 8 9 10 11 12 13
000
FTUS45 KTFX 281747
TAFHLN
TAF
KHLN 281747Z 2818/2918 VRB05KT 5SM FU BKN025 BKN060
      TEMPO 2818/2822 3SM FU
     FM290200 25006KT 6SM FU SCT025 BKN060=

USA.gov is the U.S. government's official web portal to all federal, state and local government web resources and services.